Elwood, Utah
Current Conditions -  °F | °C
As of 3:55 AM on Thursday 23 Oct 2014 (Local Time) from KBMC Reporting Station
Clear Clear  
Wind Chill: 38°   Ceiling: Unl
Heat Index: 38°   Visibility: 10mi
Dew Point: 31°   Wind: 3mph
Humidity: 78%   Direction: 120°ESE
Pressure: 30.16"   Gusts: NA
Location:  41.6836°N, 112.26°W
Report Text: KBMC 230955Z AUTO 12003KT 10SM CLR 03/00 A3016 RMK AO1 T00321003
Loading
Personal Weather Stations






























Interactive Weather Map
Tropical Storm Tracking
New forecast layout! Learn more

10-Day Weather Forecast

Advertisements
Track Severe Weather on mobile